Time;durP1;ratioP1;P1;durP2;ratioP2;P2;SDS_P1;SDS_P2;PMS_P1;PMS_P2;Temp;Humidity;BMP_temperature;BMP_pressure;BME280_temperature;BME280_humidity;BME280_pressure;Samples;Min_cycle;Max_cycle;Signal;HPM_P1;HPM_P2
2023/01/31 05:06:10;;;;;;;3.80;1.70;;;;;;;4.83;77.63;100435.31;5591136;31;270823;-56
2023/01/31 05:09:13;;;;;;;5.95;1.58;;;;;;;4.83;77.63;100435.31;5596469;31;34081;-56
2023/01/31 05:12:15;;;;;;;3.58;1.50;;;;;;;4.56;86.48;100429.81;5584142;31;33576;-56
2023/01/31 05:15:17;;;;;;;4.60;1.70;;;;;;;4.35;83.94;100433.16;5584086;32;35201;-56
2023/01/31 05:18:20;;;;;;;4.25;1.70;;;;;;;4.36;88.63;100432.09;5595208;31;33527;-56
2023/01/31 05:21:22;;;;;;;7.18;2.72;;;;;;;4.28;85.12;100435.16;5596208;31;33631;-56
2023/01/31 05:24:30;;;;;;;2.03;1.40;;;;;;;4.57;95.64;100417.34;5603615;31;34222;-55
2023/01/31 05:27:33;;;;;;;4.32;1.70;;;;;;;4.46;82.61;100406.53;5603498;31;33628;-56
2023/01/31 05:30:36;;;;;;;4.30;1.70;;;;;;;4.62;83.10;100420.91;5587267;31;33764;-56
2023/01/31 05:33:39;;;;;;;5.07;2.10;;;;;;;4.39;81.64;100421.81;5583715;31;33814;-57
2023/01/31 05:36:41;;;;;;;4.80;1.80;;;;;;;4.46;81.41;100419.03;5588974;31;34334;-57
2023/01/31 05:39:44;;;;;;;5.00;1.67;;;;;;;4.41;77.31;100408.31;5594729;31;33573;-56
2023/01/31 05:42:54;;;;;;;11.35;3.05;;;;;;;4.55;83.35;100420.25;5583631;32;33559;-56
2023/01/31 05:45:56;;;;;;;2.37;1.50;;;;;;;4.67;79.68;100417.53;5583640;31;33511;-56
2023/01/31 05:48:58;;;;;;;4.95;1.90;;;;;;;4.59;76.45;100425.88;5593818;31;33730;-56
2023/01/31 05:52:01;;;;;;;4.80;1.73;;;;;;;4.60;76.16;100430.13;5585148;31;34298;-56
2023/01/31 05:55:03;;;;;;;4.45;1.70;;;;;;;4.54;76.57;100420.50;5583658;32;33793;-56
2023/01/31 05:58:06;;;;;;;3.50;1.50;;;;;;;4.64;76.20;100440.06;5586446;31;34247;-56
2023/01/31 06:01:08;;;;;;;4.55;1.58;;;;;;;4.68;76.47;100435.88;5602096;31;34349;-56
2023/01/31 06:04:10;;;;;;;5.20;1.87;;;;;;;4.65;74.08;100435.56;5585096;31;33681;-56
2023/01/31 06:07:13;;;;;;;6.30;2.67;;;;;;;4.64;73.41;100452.53;5583089;31;34520;-56
2023/01/31 06:10:15;;;;;;;4.18;1.75;;;;;;;4.55;72.32;100446.81;5583399;31;33517;-57
2023/01/31 06:13:20;;;;;;;4.80;1.55;;;;;;;4.65;73.60;100444.31;5602602;31;33734;-57
2023/01/31 06:16:23;;;;;;;4.07;1.70;;;;;;;4.66;72.54;100459.19;5593722;31;33574;-56
2023/01/31 06:19:25;;;;;;;4.50;1.65;;;;;;;4.76;75.58;100449.81;5571521;31;33657;-56
2023/01/31 06:22:29;;;;;;;3.97;1.40;;;;;;;4.71;73.22;100458.50;5581891;31;33577;-56
2023/01/31 06:25:31;;;;;;;4.55;1.80;;;;;;;4.67;71.71;100463.47;5569001;32;33881;-56
2023/01/31 06:28:35;;;;;;;6.57;1.77;;;;;;;4.68;70.18;100458.97;5568832;31;34610;-56
2023/01/31 06:31:37;;;;;;;3.10;1.50;;;;;;;4.70;70.16;100460.34;5570150;32;33689;-56
2023/01/31 06:34:40;;;;;;;5.25;1.65;;;;;;;4.68;70.97;100465.09;5581974;31;34399;-56
2023/01/31 06:37:42;;;;;;;3.33;1.40;;;;;;;4.72;70.69;100460.09;5578490;31;34076;-56
2023/01/31 06:40:45;;;;;;;4.80;1.67;;;;;;;4.76;68.86;100476.38;5584647;31;34324;-56
2023/01/31 06:43:47;;;;;;;5.60;1.60;;;;;;;4.75;70.43;100480.87;5574212;31;34319;-57
2023/01/31 06:46:50;;;;;;;3.67;1.45;;;;;;;4.71;69.46;100474.44;5570972;31;33597;-56
2023/01/31 06:49:52;;;;;;;3.42;1.30;;;;;;;4.70;68.18;100481.59;5569852;31;33719;-56
2023/01/31 06:52:54;;;;;;;5.95;1.80;;;;;;;4.88;72.29;100477.13;5569956;32;34400;-56
2023/01/31 06:55:56;;;;;;;4.78;1.65;;;;;;;4.92;70.08;100496.84;5579734;31;34431;-57
2023/01/31 06:58:59;;;;;;;6.45;1.70;;;;;;;4.95;68.23;100493.69;5582888;31;33647;-56
2023/01/31 07:02:01;;;;;;;3.40;1.75;;;;;;;4.95;70.01;100501.66;5588488;31;35039;-57
2023/01/31 07:05:04;;;;;;;7.87;2.10;;;;;;;4.83;66.84;100500.91;5582609;31;33669;-57
2023/01/31 07:08:06;;;;;;;6.07;1.73;;;;;;;4.99;68.44;100496.69;5570764;31;32912;-56
2023/01/31 07:11:08;;;;;;;2.45;1.30;;;;;;;4.96;66.64;100497.97;5569686;32;34405;-56
2023/01/31 10:03:03;;;;;;;5.97;2.03;;;;;;;5.90;62.38;100715.44;5548262;32;101569;-53
2023/01/31 10:06:17;;;;;;;5.37;1.90;;;;;;;5.82;63.82;100721.16;5547445;32;33700;-53
2023/01/31 10:09:23;;;;;;;6.35;2.30;;;;;;;6.10;67.70;100710.47;5549556;32;33256;-53
2023/01/31 10:12:29;;;;;;;5.47;2.30;;;;;;;6.03;63.33;100717.81;5552516;32;33628;-53
2023/01/31 10:15:38;;;;;;;4.30;1.80;;;;;;;5.96;63.09;100717.19;5549622;32;31913;-53
2023/01/31 10:18:45;;;;;;;4.43;1.55;;;;;;;6.03;65.02;100720.50;5553068;32;33435;-55
2023/01/31 10:21:52;;;;;;;;;;;;;;;5.99;67.75;100724.66;5538427;32;33992;-53
2023/01/31 10:24:59;;;;;;;7.62;1.75;;;;;;;5.94;64.46;100718.47;5555078;32;33842;-52
2023/01/31 10:28:17;;;;;;;3.25;1.75;;;;;;;5.77;61.69;100732.53;5552988;32;34332;-53
2023/01/31 10:31:34;;;;;;;3.70;1.85;;;;;;;5.82;65.95;100715.81;5548560;32;34324;-52
2023/01/31 10:34:46;;;;;;;6.15;1.98;;;;;;;5.94;61.58;100719.25;5533306;32;33690;-53
2023/01/31 10:37:54;;;;;;;4.93;1.55;;;;;;;6.06;62.19;100701.37;5556332;32;34396;-54
2023/01/31 10:41:13;;;;;;;6.85;2.08;;;;;;;6.02;60.00;100708.22;5550653;32;33668;-53
2023/01/31 10:44:25;;;;;;;4.43;1.75;;;;;;;6.14;61.70;100694.03;5553271;32;34063;-52
2023/01/31 10:47:44;;;;;;;3.95;1.58;;;;;;;6.06;57.97;100709.38;5546282;32;33750;-53
2023/01/31 10:51:11;;;;;;;6.45;2.12;;;;;;;6.08;59.26;100719.75;5548662;32;33554;-52
2023/01/31 10:54:17;;;;;;;3.42;1.52;;;;;;;6.14;59.09;100716.13;5564034;32;34325;-53
2023/01/31 10:57:21;;;;;;;6.18;1.95;;;;;;;6.14;58.08;100707.34;5556701;32;34347;-53
2023/01/31 11:00:29;;;;;;;7.10;2.05;;;;;;;6.32;59.12;100710.56;5556551;32;33622;-53
2023/01/31 11:03:31;;;;;;;4.03;1.70;;;;;;;6.22;63.29;100686.44;5549099;32;33700;-53
2023/01/31 11:06:34;;;;;;;2.97;1.40;;;;;;;6.33;60.37;100704.19;5559376;32;34404;-54
2023/01/31 11:09:42;;;;;;;9.07;1.62;;;;;;;6.32;56.26;100696.44;5563602;32;34453;-54
2023/01/31 11:12:53;;;;;;;5.75;1.52;;;;;;;6.48;73.80;100684.13;5562497;32;33716;-52
2023/01/31 11:15:56;;;;;;;5.22;1.60;;;;;;;6.36;58.56;100710.88;5566955;32;34429;-54
2023/01/31 11:19:02;;;;;;;4.20;1.58;;;;;;;6.25;58.99;100674.50;5557604;32;33659;-52
2023/01/31 11:22:06;;;;;;;5.57;1.90;;;;;;;6.19;57.30;100667.47;5567336;32;33610;-54
2023/01/31 11:25:18;;;;;;;4.12;1.40;;;;;;;6.24;60.86;100688.84;5567134;32;33703;-52
2023/01/31 11:28:38;;;;;;;3.45;1.50;;;;;;;6.55;56.00;100682.09;5553483;32;33713;-54
2023/01/31 11:31:44;;;;;;;2.33;1.20;;;;;;;6.52;67.32;100683.41;5546917;32;33483;-53
2023/01/31 11:34:57;;;;;;;3.40;1.35;;;;;;;6.40;55.43;100671.25;5556360;32;33720;-52
2023/01/31 11:38:16;;;;;;;3.37;1.33;;;;;;;6.33;55.48;100674.09;5556602;32;33263;-52
2023/01/31 11:41:27;;;;;;;5.70;1.75;;;;;;;6.23;55.85;100685.41;5552235;32;34369;-52
2023/01/31 11:44:29;;;;;;;4.55;1.30;;;;;;;6.20;61.26;100656.59;5553297;32;33819;-54
2023/01/31 11:47:45;;;;;;;6.57;1.50;;;;;;;6.24;57.25;100663.03;5552163;32;33663;-52
2023/01/31 11:50:54;;;;;;;2.58;1.55;;;;;;;6.29;64.41;100652.47;5557650;32;33758;-53
2023/01/31 11:53:56;;;;;;;3.95;1.42;;;;;;;6.52;63.96;100672.78;5557026;32;33544;-53
2023/01/31 11:57:00;;;;;;;3.78;1.50;;;;;;;6.69;55.81;100650.56;5561227;32;33808;-53
2023/01/31 12:00:20;;;;;;;3.28;1.08;;;;;;;6.72;56.82;100661.56;5548879;32;33983;-55
2023/01/31 12:03:24;;;;;;;4.20;1.30;;;;;;;6.81;53.28;100651.28;5537373;32;34364;-57
2023/01/31 12:06:34;;;;;;;7.03;2.78;;;;;;;6.72;54.45;100645.59;5565134;32;33724;-54
2023/01/31 12:09:42;;;;;;;3.78;1.27;;;;;;;6.84;56.13;100658.78;5538096;32;33584;-54
2023/01/31 12:12:45;;;;;;;3.25;1.33;;;;;;;6.86;54.37;100646.00;5556048;32;33813;-52
2023/01/31 12:16:00;;;;;;;5.93;1.58;;;;;;;6.66;59.83;100635.12;5560073;32;32040;-52
2023/01/31 12:19:12;;;;;;;3.13;1.33;;;;;;;6.51;55.36;100630.37;5525499;32;32390;-54
2023/01/31 12:22:22;;;;;;;3.78;1.35;;;;;;;6.63;56.13;100641.75;5550940;32;34337;-55
2023/01/31 12:25:45;;;;;;;4.00;1.50;;;;;;;6.56;55.57;100641.91;5549160;32;34482;-56
2023/01/31 12:29:18;;;;;;;3.65;1.12;;;;;;;6.56;54.20;100644.59;5550080;32;34340;-56
2023/01/31 12:32:23;;;;;;;3.42;1.48;;;;;;;6.57;54.23;100654.16;5553280;32;32385;-53
2023/01/31 12:35:52;;;;;;;2.75;1.20;;;;;;;6.64;54.36;100654.00;5562213;32;33730;-52
2023/01/31 12:39:03;;;;;;;1.92;1.17;;;;;;;6.69;54.50;100653.25;5561237;32;33758;-52
2023/01/31 12:42:27;;;;;;;4.47;1.50;;;;;;;6.53;53.57;100666.38;5569167;32;33577;-52
2023/01/31 12:45:38;;;;;;;;;;;;;;;6.49;54.38;100659.94;5557426;32;33715;-52
2023/01/31 12:49:06;;;;;;;3.97;1.50;;;;;;;6.38;55.95;100655.50;5547351;32;34096;-52
2023/01/31 12:52:21;;;;;;;7.55;1.40;;;;;;;6.45;55.50;100671.31;5537006;32;33771;-52
2023/01/31 12:55:42;;;;;;;5.12;1.90;;;;;;;6.50;56.18;100658.09;5548712;32;33752;-52
2023/01/31 12:59:19;;;;;;;3.90;1.73;;;;;;;6.35;56.87;100661.31;5552644;32;33751;-53
2023/01/31 13:03:07;;;;;;;5.90;1.83;;;;;;;6.35;58.48;100666.66;5539926;32;34246;-52
2023/01/31 13:06:15;;;;;;;5.15;1.80;;;;;;;6.46;57.63;100673.75;5532895;32;33647;-52
2023/01/31 13:09:18;;;;;;;4.28;1.60;;;;;;;6.46;58.85;100681.75;5554229;32;33754;-52
2023/01/31 13:12:24;;;;;;;5.15;1.73;;;;;;;6.29;57.13;100694.25;5557348;32;34553;-52
2023/01/31 13:15:41;;;;;;;3.15;1.48;;;;;;;6.42;73.15;100701.09;5557130;32;34467;-53
2023/01/31 13:18:47;;;;;;;6.12;2.60;;;;;;;6.38;58.21;100702.63;5553483;32;33746;-52
2023/01/31 13:21:55;;;;;;;6.10;2.20;;;;;;;6.33;59.21;100712.16;5558016;32;34450;-53
2023/01/31 13:25:16;;;;;;;5.75;1.87;;;;;;;6.35;59.29;100720.69;5555314;32;33761;-55
2023/01/31 13:28:27;;;;;;;5.10;1.85;;;;;;;6.29;60.44;100724.38;5544850;32;33164;-54
2023/01/31 13:31:41;;;;;;;5.70;2.70;;;;;;;6.25;60.17;100714.44;5556935;32;33620;-53
2023/01/31 13:34:50;;;;;;;6.45;1.90;;;;;;;6.08;63.83;100725.88;5561734;32;33741;-52
2023/01/31 13:38:03;;;;;;;4.85;1.75;;;;;;;6.03;63.05;100736.47;5554079;32;34441;-53
2023/01/31 13:41:11;;;;;;;4.20;2.08;;;;;;;6.08;61.19;100747.16;5550899;32;34327;-52
2023/01/31 13:44:16;;;;;;;3.25;1.70;;;;;;;6.10;61.49;100747.75;5569338;32;34453;-53
2023/01/31 13:47:25;;;;;;;3.35;1.50;;;;;;;6.27;62.64;100744.28;5569607;32;33642;-52
2023/01/31 13:50:38;;;;;;;4.32;1.90;;;;;;;6.43;61.47;100740.00;5530875;32;33615;-53
2023/01/31 13:53:52;;;;;;;6.82;1.98;;;;;;;6.48;60.23;100743.53;5543487;32;33736;-53
2023/01/31 13:56:58;;;;;;;3.47;1.80;;;;;;;6.37;59.95;100740.97;5564740;32;33857;-53
2023/01/31 14:00:33;;;;;;;4.27;1.83;;;;;;;6.30;60.70;100747.28;5554254;32;33657;-53
2023/01/31 14:04:09;;;;;;;3.17;1.70;;;;;;;6.13;61.79;100759.78;5557498;32;34389;-52
2023/01/31 14:07:11;;;;;;;;;;;;;;;6.28;62.08;100748.56;5566892;32;33826;-53
2023/01/31 14:10:13;;;;;;;4.10;1.80;;;;;;;6.23;59.84;100748.50;5553214;32;34669;-53
2023/01/31 14:13:32;;;;;;;6.12;1.77;;;;;;;6.68;76.01;100755.53;5550496;32;34473;-52
2023/01/31 14:16:41;;;;;;;4.12;1.80;;;;;;;6.48;61.58;100767.50;5557398;32;33571;-52
2023/01/31 14:19:46;;;;;;;4.85;2.10;;;;;;;6.44;61.99;100758.41;5547289;32;34459;-53
2023/01/31 14:23:24;;;;;;;5.43;1.90;;;;;;;6.45;63.41;100773.31;5539783;32;34629;-53
2023/01/31 14:26:41;;;;;;;5.87;1.80;;;;;;;6.72;69.02;100768.16;5543377;32;33798;-52
2023/01/31 14:29:46;;;;;;;9.75;2.05;;;;;;;6.63;60.89;100771.47;5569208;32;33714;-53
2023/01/31 14:33:14;;;;;;;4.50;1.75;;;;;;;6.41;61.39;100772.19;5569210;32;33943;-53
2023/01/31 14:36:25;;;;;;;6.90;1.80;;;;;;;6.23;64.03;100764.47;5561848;32;33631;-53
2023/01/31 14:39:58;;;;;;;2.80;1.75;;;;;;;6.09;62.99;100755.97;5549647;32;33769;-53
2023/01/31 14:43:52;;;;;;;5.60;2.30;;;;;;;6.17;62.26;100768.09;5561620;32;33714;-53
2023/01/31 14:47:19;;;;;;;5.75;2.50;;;;;;;6.15;64.66;100764.84;5541708;32;34286;-52
2023/01/31 14:50:52;;;;;;;6.03;2.08;;;;;;;6.24;63.46;100768.72;5568347;32;33599;-53
2023/01/31 14:53:57;;;;;;;3.60;1.92;;;;;;;6.27;64.47;100768.25;5569091;32;33758;-53
2023/01/31 14:57:12;;;;;;;5.00;1.90;;;;;;;6.16;63.33;100774.44;5568694;32;34420;-53
2023/01/31 15:00:25;;;;;;;6.07;2.30;;;;;;;6.33;66.30;100775.28;5568908;32;33698;-52
2023/01/31 15:03:47;;;;;;;5.80;1.73;;;;;;;6.23;63.84;100769.78;5568777;32;33848;-53
2023/01/31 15:06:53;;;;;;;5.40;1.83;;;;;;;6.19;64.29;100768.63;5568377;32;33535;-53
2023/01/31 15:09:56;;;;;;;6.00;1.90;;;;;;;6.27;64.28;100761.06;5558414;32;34411;-53
2023/01/31 15:12:59;;;;;;;5.20;1.90;;;;;;;6.24;63.65;100760.75;5552160;32;33774;-53
2023/01/31 15:16:06;;;;;;;6.03;2.00;;;;;;;6.30;63.88;100770.44;5554511;32;33716;-53
2023/01/31 15:19:18;;;;;;;5.37;2.15;;;;;;;6.11;66.18;100762.66;5553226;32;33836;-53
2023/01/31 15:22:21;;;;;;;4.60;1.90;;;;;;;6.12;64.60;100766.13;5548815;32;33677;-53
2023/01/31 15:25:33;;;;;;;6.07;1.95;;;;;;;6.03;69.15;100775.56;5548864;32;33830;-53
2023/01/31 15:28:41;;;;;;;4.00;2.12;;;;;;;5.82;68.27;100783.16;5548345;32;33632;-53
2023/01/31 15:31:47;;;;;;;5.12;2.40;;;;;;;5.92;71.89;100782.53;5543127;32;33885;-53
2023/01/31 15:35:00;;;;;;;5.03;2.20;;;;;;;5.81;69.23;100791.38;5544829;32;33722;-52
2023/01/31 15:38:34;;;;;;;6.60;2.50;;;;;;;5.79;71.54;100782.81;5552966;32;33702;-53
2023/01/31 15:41:39;;;;;;;8.13;2.53;;;;;;;5.74;68.55;100788.88;5532837;32;33754;-52
2023/01/31 15:44:41;;;;;;;5.03;2.00;;;;;;;5.82;71.65;100777.03;5548720;32;33685;-53
2023/01/31 15:48:14;;;;;;;7.95;2.58;;;;;;;5.77;70.97;100768.97;5550921;32;34337;-53
2023/01/31 15:51:17;;;;;;;4.97;1.95;;;;;;;5.94;71.63;100764.50;5535234;32;33638;-52
2023/01/31 15:54:19;;;;;;;4.12;2.10;;;;;;;6.14;68.95;100763.25;5550807;32;33768;-53
2023/01/31 15:57:26;;;;;;;6.22;2.42;;;;;;;6.17;70.42;100754.78;5550438;32;33747;-53
2023/01/31 16:00:32;;;;;;;5.90;2.65;;;;;;;6.14;71.25;100764.03;5550529;32;34624;-53
2023/01/31 16:03:39;;;;;;;7.90;2.42;;;;;;;6.29;69.93;100766.97;5550989;32;34342;-53
2023/01/31 16:06:41;;;;;;;7.65;2.60;;;;;;;6.14;68.67;100772.03;5551248;32;33502;-53
2023/01/31 16:09:45;;;;;;;6.00;2.60;;;;;;;6.16;68.58;100769.94;5551131;32;34419;-53
2023/01/31 16:12:52;;;;;;;7.10;2.78;;;;;;;6.19;68.61;100766.81;5550972;32;33666;-53
2023/01/31 16:15:54;;;;;;;6.15;2.90;;;;;;;6.29;68.90;100764.31;5550606;32;33681;-53
2023/01/31 16:18:58;;;;;;;8.23;4.30;;;;;;;6.19;68.24;100763.31;5550856;32;33786;-53
2023/01/31 16:22:01;;;;;;;7.30;3.62;;;;;;;6.11;71.50;100768.00;5551028;32;33785;-53
2023/01/31 16:25:04;;;;;;;9.98;4.40;;;;;;;6.03;68.09;100765.72;5550938;32;33776;-52
2023/01/31 16:28:11;;;;;;;5.72;2.62;;;;;;;6.25;68.46;100771.12;5544580;32;33802;-53
2023/01/31 16:31:15;;;;;;;7.68;2.70;;;;;;;6.21;69.36;100771.88;5551067;32;34329;-53
2023/01/31 16:34:29;;;;;;;10.13;3.37;;;;;;;6.28;68.08;100767.19;5550892;32;34378;-53
2023/01/31 16:37:39;;;;;;;8.55;3.67;;;;;;;6.15;68.78;100770.97;5537060;32;33672;-53
2023/01/31 16:40:49;;;;;;;8.77;3.65;;;;;;;6.14;69.99;100771.22;5550973;32;33761;-53
2023/01/31 16:43:51;;;;;;;8.50;3.60;;;;;;;6.10;68.87;100771.69;5536767;32;33795;-54
